Shelburn, Indiana
Current Conditions -  °F | °C
As of 8:55 PM on Sunday 21 Dec 2014 (Local Time) from KRSV Reporting Station
Clear Clear  
Wind Chill: 25°   Ceiling: Unl
Heat Index: 33°   Visibility: 7mi
Dew Point: 30°   Wind: 10mph
Humidity: 86%   Direction: 130°SE
Pressure: 30.1"   Gusts: NA
Location:  39.18°N, 87.39°W
Report Text: KRSV 220155Z AUTO 13009KT 7SM CLR 01/M01 A3010 RMK AO2 T00081013
Loading
Personal Weather Stations






























Interactive Weather Map New forecast layout! Learn more

10-Day Weather Forecast

Advertisements
Track Severe Weather on mobile